Time;durP1;ratioP1;P1;durP2;ratioP2;P2;SDS_P1;SDS_P2;PMS_P1;PMS_P2;Temp;Humidity;BMP_temperature;BMP_pressure;BME280_temperature;BME280_humidity;BME280_pressure;Samples;Min_cycle;Max_cycle;Signal;HPM_P1;HPM_P2
2020/12/11 00:02:05;;;;;;;6.67;4.23;;;7.30;73.40;;;;;;5053191;28;20446;-61
2020/12/11 00:04:31;;;;;;;6.33;4.37;;;7.40;73.20;;;;;;5053363;28;20033;-61
2020/12/11 00:06:58;;;;;;;6.97;4.23;;;7.30;73.20;;;;;;5052936;28;20021;-61
2020/12/11 00:09:27;;;;;;;6.40;3.80;;;7.30;73.10;;;;;;5053165;28;20032;-61
2020/12/11 00:11:53;;;;;;;5.43;3.83;;;7.40;73.20;;;;;;5053076;28;20052;-63
2020/12/11 00:14:20;;;;;;;5.37;4.20;;;7.40;73.10;;;;;;5053136;28;20021;-61
2020/12/11 00:16:46;;;;;;;5.63;3.90;;;7.40;73.50;;;;;;5052986;28;20017;-61
2020/12/11 00:19:11;;;;;;;5.47;4.30;;;7.30;73.60;;;;;;5052517;28;20041;-61
2020/12/11 00:21:42;;;;;;;5.17;4.07;;;7.40;73.60;;;;;;5053149;28;20086;-61
2020/12/11 00:24:08;;;;;;;6.33;4.23;;;7.40;73.50;;;;;;5053056;28;20096;-63
2020/12/11 00:26:34;;;;;;;6.07;3.67;;;7.40;73.30;;;;;;5053058;28;20029;-63
2020/12/11 00:29:00;;;;;;;5.90;4.03;;;7.40;72.90;;;;;;5052974;28;20052;-61
2020/12/11 00:31:26;;;;;;;4.87;3.80;;;7.30;72.70;;;;;;5052864;28;20379;-63
2020/12/11 00:33:53;;;;;;;5.60;3.73;;;7.30;72.90;;;;;;5053112;28;20048;-63
2020/12/11 00:36:20;;;;;;;6.67;3.70;;;7.30;72.70;;;;;;5052938;28;20025;-63
2020/12/11 00:38:45;;;;;;;5.00;3.93;;;7.30;72.70;;;;;;5053095;28;20021;-62
2020/12/11 00:41:11;;;;;;;5.53;3.93;;;7.30;72.60;;;;;;5052627;28;20024;-63
2020/12/11 00:43:37;;;;;;;4.33;3.40;;;7.30;72.80;;;;;;5052732;28;20428;-61
2020/12/11 00:46:03;;;;;;;6.40;3.50;;;7.30;72.50;;;;;;5053982;28;20041;-61
2020/12/11 00:48:29;;;;;;;5.67;4.07;;;7.30;72.40;;;;;;5056417;28;20025;-61
2020/12/11 00:50:55;;;;;;;7.87;3.83;;;7.30;72.60;;;;;;5056632;28;20474;-61
2020/12/11 00:53:20;;;;;;;5.57;3.93;;;7.20;72.50;;;;;;5056562;28;20063;-61
2020/12/11 00:55:46;;;;;;;5.43;3.80;;;7.20;72.50;;;;;;5056566;28;20017;-61
2020/12/11 00:58:12;;;;;;;7.17;4.87;;;7.20;72.60;;;;;;5056503;28;20017;-61
2020/12/11 01:00:38;;;;;;;7.10;5.13;;;7.20;72.50;;;;;;5056621;28;20532;-61
2020/12/11 01:03:04;;;;;;;11.97;7.63;;;7.20;72.90;;;;;;5056521;28;20056;-63
2020/12/11 01:05:30;;;;;;;50.63;23.43;;;7.10;73.20;;;;;;5055955;28;20040;-63
2020/12/11 01:07:56;;;;;;;20.67;12.10;;;7.10;73.70;;;;;;5056305;28;20378;-63
2020/12/11 01:10:21;;;;;;;15.73;9.90;;;7.10;74.30;;;;;;5056022;28;20104;-63
2020/12/11 01:12:47;;;;;;;17.40;9.77;;;7.00;74.60;;;;;;5056220;28;20060;-63
2020/12/11 01:15:13;;;;;;;13.90;8.23;;;7.00;75.40;;;;;;5056075;28;20021;-63
2020/12/11 01:17:39;;;;;;;12.30;8.13;;;7.00;75.40;;;;;;5056120;28;20056;-63
2020/12/11 01:20:05;;;;;;;10.70;7.33;;;6.90;75.80;;;;;;5056081;28;20025;-63
2020/12/11 01:22:32;;;;;;;11.83;7.70;;;6.90;75.50;;;;;;5055903;28;20489;-62
2020/12/11 01:24:58;;;;;;;30.20;18.13;;;6.90;75.80;;;;;;5055908;28;20025;-63
2020/12/11 01:27:24;;;;;;;28.67;18.93;;;6.80;75.90;;;;;;5056287;28;20036;-63
2020/12/11 01:29:50;;;;;;;23.07;14.17;;;6.90;75.80;;;;;;5056069;28;20025;-61
2020/12/11 01:32:16;;;;;;;21.50;12.70;;;6.90;75.90;;;;;;5055778;28;20116;-63
2020/12/11 01:34:41;;;;;;;13.27;9.23;;;6.80;76.20;;;;;;5055688;28;20029;-62
2020/12/11 01:37:07;;;;;;;11.57;8.63;;;6.80;76.30;;;;;;5055761;28;20048;-63
2020/12/11 01:39:33;;;;;;;10.63;7.10;;;6.80;76.50;;;;;;5055656;28;20047;-63
2020/12/11 01:42:00;;;;;;;7.53;5.70;;;6.80;76.50;;;;;;5055654;28;20029;-61
2020/12/11 01:44:26;;;;;;;8.10;6.20;;;6.80;76.60;;;;;;5055837;28;20025;-61
2020/12/11 01:46:57;;;;;;;6.83;5.57;;;6.80;76.60;;;;;;5055564;28;20013;-61
2020/12/11 01:49:23;;;;;;;7.33;5.20;;;6.80;76.80;;;;;;5055719;28;20029;-63
2020/12/11 01:51:52;;;;;;;7.33;5.07;;;6.80;76.60;;;;;;5055499;28;20424;-63
2020/12/11 01:54:18;;;;;;;7.80;4.57;;;6.80;76.50;;;;;;5055401;28;20021;-63
2020/12/11 01:56:51;;;;;;;7.67;4.80;;;6.90;76.50;;;;;;5055048;28;20017;-60
2020/12/11 01:59:19;;;;;;;;;;;6.90;76.50;;;;;;5053217;28;20217;-63
2020/12/11 02:01:47;;;;;;;7.70;4.37;;;6.90;76.60;;;;;;5052500;28;19952;-61
2020/12/11 02:04:13;;;;;;;6.03;4.43;;;6.90;76.70;;;;;;5053154;28;20025;-62
2020/12/11 02:06:39;;;;;;;5.53;4.37;;;6.90;76.50;;;;;;5054738;28;20027;-63
2020/12/11 02:09:05;;;;;;;6.03;4.43;;;7.00;76.50;;;;;;5055044;28;20040;-63
2020/12/11 02:11:31;;;;;;;5.17;4.30;;;7.00;76.40;;;;;;5054957;28;20029;-63
2020/12/11 02:13:56;;;;;;;6.80;4.10;;;7.00;76.20;;;;;;5054643;28;20485;-63
2020/12/11 02:16:24;;;;;;;6.10;4.30;;;7.00;76.00;;;;;;5054937;28;20074;-63
2020/12/11 02:18:50;;;;;;;6.10;4.53;;;7.10;76.00;;;;;;5054828;28;20048;-63
2020/12/11 02:21:17;;;;;;;6.40;4.47;;;7.10;75.70;;;;;;5054352;28;20037;-63
2020/12/11 02:23:43;;;;;;;4.73;4.10;;;7.10;75.60;;;;;;5054685;28;20017;-61
2020/12/11 02:26:10;;;;;;;6.33;4.47;;;7.10;75.30;;;;;;5054872;28;20055;-61
2020/12/11 02:28:37;;;;;;;6.23;4.40;;;7.10;75.30;;;;;;5054480;28;20103;-60
2020/12/11 02:31:03;;;;;;;5.50;4.57;;;7.10;75.30;;;;;;5054624;28;20056;-61
2020/12/11 02:33:30;;;;;;;6.20;4.50;;;7.10;75.40;;;;;;5054390;28;20025;-61
2020/12/11 02:35:56;;;;;;;5.60;4.40;;;7.10;75.30;;;;;;5054538;28;20355;-63
2020/12/11 02:38:22;;;;;;;5.03;4.20;;;7.20;75.00;;;;;;5054311;28;20531;-61
2020/12/11 02:40:56;;;;;;;6.40;4.27;;;7.10;74.90;;;;;;5054530;28;20021;-61
2020/12/11 02:43:22;;;;;;;7.53;4.70;;;7.20;74.70;;;;;;5054102;28;20112;-63
2020/12/11 02:45:50;;;;;;;6.03;4.63;;;7.10;74.80;;;;;;5054266;28;20493;-63
2020/12/11 02:48:16;;;;;;;5.97;4.73;;;7.10;74.90;;;;;;5053944;28;20038;-61
2020/12/11 02:50:42;;;;;;;5.97;5.07;;;7.20;75.10;;;;;;5053991;28;20025;-61
2020/12/11 02:53:08;;;;;;;7.20;4.57;;;7.20;75.00;;;;;;5054042;28;20028;-61
2020/12/11 02:55:34;;;;;;;4.60;3.70;;;7.20;75.00;;;;;;5054032;28;20036;-63
2020/12/11 02:58:00;;;;;;;7.00;4.40;;;7.20;74.80;;;;;;5054073;28;20104;-63
2020/12/11 03:00:26;;;;;;;6.03;4.70;;;7.20;74.50;;;;;;5054300;28;20163;-63
2020/12/11 03:02:52;;;;;;;5.53;4.00;;;7.20;74.30;;;;;;5054356;28;20431;-63
2020/12/11 03:05:17;;;;;;;6.33;4.20;;;7.20;74.10;;;;;;5054140;28;20100;-63
2020/12/11 03:07:43;;;;;;;6.27;4.10;;;7.20;73.90;;;;;;5053774;28;20492;-63
2020/12/11 03:10:09;;;;;;;5.00;3.97;;;7.20;73.70;;;;;;5053529;28;20043;-63
2020/12/11 03:12:35;;;;;;;8.33;4.53;;;7.20;73.50;;;;;;5053960;28;20029;-63
2020/12/11 03:15:01;;;;;;;5.10;4.10;;;7.20;73.50;;;;;;5053873;28;20029;-63
2020/12/11 03:17:27;;;;;;;6.33;3.77;;;7.30;73.50;;;;;;5053783;28;20051;-61
2020/12/11 03:19:52;;;;;;;7.50;4.30;;;7.30;73.40;;;;;;5053668;28;20025;-63
2020/12/11 03:22:18;;;;;;;4.30;3.63;;;7.20;73.10;;;;;;5053644;28;20492;-61
2020/12/11 03:24:44;;;;;;;4.97;3.90;;;7.20;73.00;;;;;;5053694;28;20014;-61
2020/12/11 03:27:10;;;;;;;6.00;4.30;;;7.20;73.40;;;;;;5053721;28;20037;-61
2020/12/11 03:29:36;;;;;;;5.10;4.10;;;7.20;73.40;;;;;;5053518;28;20412;-61
2020/12/11 03:32:02;;;;;;;5.57;4.07;;;7.20;73.40;;;;;;5053538;28;20028;-61
2020/12/11 03:34:28;;;;;;;5.30;4.07;;;7.10;73.40;;;;;;5053392;28;20043;-63
2020/12/11 03:36:53;;;;;;;6.80;4.80;;;7.10;73.60;;;;;;5053381;28;20473;-63
2020/12/11 03:39:19;;;;;;;10.07;5.80;;;7.10;73.80;;;;;;5053367;28;20024;-63
2020/12/11 03:41:50;;;;;;;6.20;5.00;;;7.10;74.10;;;;;;5053407;28;20029;-63
2020/12/11 03:44:16;;;;;;;6.83;5.37;;;7.10;74.30;;;;;;5053383;28;20497;-61
2020/12/11 03:46:41;;;;;;;11.40;6.07;;;7.00;75.10;;;;;;5053102;28;20025;-62
2020/12/11 03:49:08;;;;;;;8.30;6.60;;;7.00;75.40;;;;;;5053348;28;20087;-63
2020/12/11 03:51:33;;;;;;;7.97;6.03;;;7.00;75.70;;;;;;5053418;28;20020;-63
2020/12/11 03:53:59;;;;;;;9.57;6.30;;;7.00;75.70;;;;;;5053160;28;20381;-63
2020/12/11 03:56:25;;;;;;;8.90;5.90;;;7.00;75.90;;;;;;5053263;28;20021;-63
2020/12/11 03:58:50;;;;;;;9.07;6.23;;;6.90;75.90;;;;;;5053109;28;20075;-63
2020/12/11 04:01:16;;;;;;;8.00;6.00;;;6.90;76.30;;;;;;5053228;28;20025;-63
2020/12/11 04:03:42;;;;;;;8.13;6.43;;;6.90;76.40;;;;;;5053156;28;20047;-63
2020/12/11 04:06:09;;;;;;;7.83;5.93;;;6.80;76.60;;;;;;5053007;28;20029;-63
2020/12/11 04:08:36;;;;;;;7.57;6.17;;;6.80;76.60;;;;;;5053224;28;20393;-63
2020/12/11 04:11:07;;;;;;;7.57;5.90;;;6.80;76.70;;;;;;5053084;28;20377;-63
2020/12/11 04:13:33;;;;;;;9.70;5.97;;;6.80;76.70;;;;;;5052969;28;20542;-63
2020/12/11 04:15:58;;;;;;;7.00;6.07;;;6.70;76.70;;;;;;5052714;28;20108;-63
2020/12/11 04:18:24;;;;;;;10.77;6.40;;;6.70;77.00;;;;;;5052979;28;20482;-63
2020/12/11 04:20:50;;;;;;;8.57;6.63;;;6.70;77.00;;;;;;5055674;28;20104;-62
2020/12/11 04:23:15;;;;;;;12.47;6.00;;;6.70;77.20;;;;;;5057364;28;20028;-63
2020/12/11 04:25:41;;;;;;;9.17;5.80;;;6.60;77.30;;;;;;5057143;28;20031;-63
2020/12/11 04:28:07;;;;;;;6.17;5.00;;;6.60;77.50;;;;;;5056802;28;20041;-63
2020/12/11 04:30:32;;;;;;;4.67;3.90;;;6.60;77.60;;;;;;5056936;28;20028;-63
2020/12/11 04:32:58;;;;;;;6.50;4.57;;;6.60;77.30;;;;;;5057017;28;20025;-63
2020/12/11 04:35:24;;;;;;;5.80;4.30;;;6.70;76.80;;;;;;5056781;28;20032;-63
2020/12/11 04:37:51;;;;;;;6.10;4.83;;;6.60;76.40;;;;;;5056980;28;20071;-63
2020/12/11 04:40:17;;;;;;;7.10;4.50;;;6.70;76.40;;;;;;5057013;28;20389;-63
2020/12/11 04:42:45;;;;;;;6.60;4.40;;;6.70;76.30;;;;;;5056795;28;20029;-63
2020/12/11 04:45:11;;;;;;;5.47;4.20;;;6.70;76.10;;;;;;5056767;28;20057;-63
2020/12/11 04:47:44;;;;;;;5.30;4.23;;;6.70;76.10;;;;;;5056668;28;20454;-63
2020/12/11 04:50:17;;;;;;;5.30;3.80;;;6.70;76.10;;;;;;5056734;28;20443;-63
2020/12/11 04:52:46;;;;;;;5.57;3.70;;;6.80;76.80;;;;;;5056471;28;20033;-63
2020/12/11 04:55:17;;;;;;;5.37;3.93;;;6.70;75.70;;;;;;5056440;28;20033;-63
2020/12/11 04:57:47;;;;;;;4.00;3.57;;;6.80;76.20;;;;;;5056467;28;20083;-63
2020/12/11 05:00:14;;;;;;;5.53;3.77;;;6.80;75.70;;;;;;5056495;28;20040;-63
2020/12/11 05:02:42;;;;;;;5.33;3.97;;;6.70;75.80;;;;;;5056609;28;20021;-63
2020/12/11 05:05:08;;;;;;;4.70;3.90;;;6.70;75.80;;;;;;5056302;28;20025;-63
2020/12/11 05:07:35;;;;;;;4.33;3.73;;;6.70;75.80;;;;;;5056479;28;20043;-63
2020/12/11 05:10:02;;;;;;;5.27;3.70;;;6.70;75.60;;;;;;5056487;28;20021;-63
2020/12/11 05:12:28;;;;;;;4.80;3.80;;;6.70;75.90;;;;;;5056466;28;20474;-63
2020/12/11 05:15:12;;;;;;;4.87;3.93;;;6.70;75.90;;;;;;5056383;28;20021;-63
2020/12/11 05:17:42;;;;;;;4.53;3.70;;;6.70;75.90;;;;;;5056126;28;20094;-63
2020/12/11 05:20:10;;;;;;;5.87;4.47;;;6.70;76.00;;;;;;5055940;28;20422;-63
2020/12/11 05:22:38;;;;;;;5.00;4.00;;;6.70;76.10;;;;;;5056274;28;20025;-62
2020/12/11 05:25:15;;;;;;;5.33;4.27;;;6.70;76.20;;;;;;5056398;28;20025;-63
2020/12/11 05:27:46;;;;;;;5.83;4.13;;;6.70;76.00;;;;;;5055936;28;20041;-63
2020/12/11 05:30:13;;;;;;;5.00;4.03;;;6.70;76.10;;;;;;5055755;28;20078;-63
2020/12/11 05:32:44;;;;;;;4.10;3.70;;;6.70;76.30;;;;;;5055024;28;20041;-63
2020/12/11 05:35:18;;;;;;;7.17;3.90;;;6.70;76.40;;;;;;5055863;28;20021;-63
2020/12/11 05:37:53;;;;;;;5.63;4.30;;;6.70;76.30;;;;;;5055891;28;20025;-63
2020/12/11 05:40:42;;;;;;;5.03;3.80;;;6.70;76.30;;;;;;5055972;28;20120;-63
2020/12/11 05:43:18;;;;;;;6.53;4.10;;;6.80;76.20;;;;;;5055524;28;20021;-63
2020/12/11 05:45:51;;;;;;;5.13;3.70;;;6.80;76.10;;;;;;5055482;28;20076;-63
2020/12/11 05:48:17;;;;;;;5.20;3.90;;;6.80;76.00;;;;;;5055848;28;20421;-63
2020/12/11 05:50:43;;;;;;;5.40;4.13;;;6.80;75.70;;;;;;5055720;28;20312;-63
2020/12/11 05:53:09;;;;;;;17.23;4.33;;;6.80;75.50;;;;;;5055601;28;20382;-63
2020/12/11 05:55:35;;;;;;;9.03;3.63;;;6.80;75.30;;;;;;5055517;28;20044;-63
2020/12/11 05:58:01;;;;;;;5.70;4.30;;;6.70;75.10;;;;;;5055109;28;20075;-63
2020/12/11 06:00:27;;;;;;;6.67;4.67;;;6.70;75.10;;;;;;5055728;28;20029;-63
2020/12/11 06:02:54;;;;;;;6.00;4.13;;;6.70;75.10;;;;;;5055317;28;20033;-63
2020/12/11 06:05:23;;;;;;;6.83;4.00;;;6.70;75.20;;;;;;5055058;28;20029;-63
2020/12/11 06:07:50;;;;;;;5.53;4.30;;;6.70;75.30;;;;;;5055142;28;20037;-63
2020/12/11 06:10:20;;;;;;;5.83;4.50;;;6.70;75.20;;;;;;5055328;28;20023;-63
2020/12/11 06:12:46;;;;;;;5.77;4.33;;;6.70;75.10;;;;;;5055094;28;20107;-63
2020/12/11 06:15:21;;;;;;;4.93;4.10;;;6.70;75.30;;;;;;5054951;28;20433;-63
2020/12/11 06:18:02;;;;;;;4.60;3.87;;;6.60;75.20;;;;;;5054712;28;20049;-63
2020/12/11 06:20:28;;;;;;;6.57;4.00;;;6.60;75.40;;;;;;5054852;28;20017;-63
2020/12/11 06:23:14;;;;;;;5.53;4.03;;;6.60;75.80;;;;;;5054956;28;20040;-63
2020/12/11 06:25:52;;;;;;;6.93;4.20;;;6.60;75.80;;;;;;5054798;28;20017;-63
2020/12/11 06:28:54;;;;;;;4.73;3.97;;;6.60;75.90;;;;;;5055053;28;20033;-63
2020/12/11 06:31:22;;;;;;;4.60;3.80;;;6.60;76.00;;;;;;5054000;28;20439;-63
2020/12/11 06:33:56;;;;;;;5.53;4.43;;;6.50;76.00;;;;;;5054648;28;20037;-63
2020/12/11 06:36:22;;;;;;;6.17;4.53;;;6.50;76.30;;;;;;5054847;28;20017;-64
2020/12/11 06:38:53;;;;;;;7.53;4.10;;;6.60;76.50;;;;;;5054435;28;20033;-63
2020/12/11 06:41:28;;;;;;;5.90;4.40;;;6.60;76.50;;;;;;5054665;28;20024;-63
2020/12/11 06:44:17;;;;;;;6.73;4.37;;;6.60;76.30;;;;;;5054197;28;20491;-63
2020/12/11 06:47:01;;;;;;;5.23;4.20;;;6.60;76.10;;;;;;5054181;28;20037;-63
2020/12/11 06:49:27;;;;;;;6.13;4.50;;;6.60;76.10;;;;;;5054364;28;20436;-63
2020/12/11 06:51:53;;;;;;;8.77;4.90;;;6.70;76.20;;;;;;5054522;28;20029;-64
2020/12/11 06:54:21;;;;;;;7.30;4.83;;;6.70;76.30;;;;;;5054055;28;20025;-63
2020/12/11 06:56:56;;;;;;;6.90;5.30;;;6.70;76.30;;;;;;5054276;28;20495;-63
2020/12/11 06:59:28;;;;;;;8.70;5.30;;;6.70;76.30;;;;;;5054640;28;20462;-63
2020/12/11 07:02:04;;;;;;;9.37;5.30;;;6.80;76.30;;;;;;5054232;28;20029;-63
2020/12/11 07:04:39;;;;;;;7.53;4.70;;;6.80;76.10;;;;;;5054205;28;20426;-63
2020/12/11 07:07:05;;;;;;;6.60;5.10;;;6.80;76.00;;;;;;5053843;28;20036;-63
2020/12/11 07:09:37;;;;;;;5.67;4.50;;;6.80;75.90;;;;;;5053935;28;20032;-63
2020/12/11 07:12:03;;;;;;;5.87;4.93;;;6.90;75.80;;;;;;5053965;28;20017;-63
2020/12/11 07:14:28;;;;;;;7.97;5.00;;;6.90;75.40;;;;;;5053663;28;20032;-63
2020/12/11 07:16:54;;;;;;;6.53;5.43;;;6.90;75.40;;;;;;5053930;28;20406;-63
2020/12/11 07:19:20;;;;;;;6.43;4.83;;;7.00;75.50;;;;;;5053974;28;20060;-61
2020/12/11 07:21:47;;;;;;;7.07;5.20;;;7.00;75.40;;;;;;5054017;28;20024;-61
2020/12/11 07:24:13;;;;;;;5.73;4.70;;;7.00;75.30;;;;;;5053752;28;20196;-63
2020/12/11 07:26:40;;;;;;;6.63;5.13;;;7.00;75.10;;;;;;5051369;28;20172;-63
2020/12/11 07:29:10;;;;;;;7.37;5.20;;;7.00;74.90;;;;;;5050937;28;20032;-65
2020/12/11 07:31:41;;;;;;;16.07;8.20;;;7.10;74.80;;;;;;5050783;28;20029;-63
2020/12/11 07:34:21;;;;;;;8.43;6.13;;;7.10;74.60;;;;;;5053366;28;20056;-63
2020/12/11 07:36:56;;;;;;;13.00;8.43;;;7.10;74.60;;;;;;5050808;28;20098;-65
2020/12/11 07:39:24;;;;;;;8.60;5.60;;;7.10;74.50;;;;;;5050746;28;20035;-65
2020/12/11 07:41:51;;;;;;;9.73;4.93;;;7.20;74.30;;;;;;5053088;28;20436;-64
2020/12/11 07:44:32;;;;;;;8.23;5.13;;;7.20;74.10;;;;;;5053463;28;20025;-64
2020/12/11 07:47:01;;;;;;;5.57;4.23;;;7.20;74.00;;;;;;5053481;28;20382;-64
2020/12/11 07:49:40;;;;;;;6.43;4.63;;;7.20;73.90;;;;;;5053247;28;20025;-64
2020/12/11 07:52:07;;;;;;;5.20;3.90;;;7.20;73.80;;;;;;5053421;28;20021;-64
2020/12/11 07:54:43;;;;;;;6.73;4.60;;;7.30;74.40;;;;;;5052789;28;20057;-64
2020/12/11 07:57:13;;;;;;;5.80;4.27;;;7.30;73.70;;;;;;5053364;28;20014;-64
2020/12/11 07:59:54;;;;;;;7.50;4.53;;;7.30;73.60;;;;;;5053278;28;20086;-64
2020/12/11 08:02:21;;;;;;;6.87;4.87;;;7.30;73.50;;;;;;5053062;28;20068;-64
2020/12/11 08:04:47;;;;;;;5.20;3.87;;;7.40;73.50;;;;;;5053023;28;20038;-64
2020/12/11 08:07:25;;;;;;;8.93;4.60;;;7.40;73.30;;;;;;5053046;28;20021;-64
2020/12/11 08:09:51;;;;;;;6.90;5.20;;;7.40;73.10;;;;;;5053315;28;20029;-64
2020/12/11 08:12:16;;;;;;;9.20;4.47;;;7.40;73.20;;;;;;5053304;28;20047;-64
2020/12/11 08:14:43;;;;;;;5.80;4.80;;;7.50;73.60;;;;;;5052983;28;20490;-64
2020/12/11 08:17:14;;;;;;;6.30;4.63;;;7.50;73.80;;;;;;5053315;28;20060;-64
2020/12/11 08:19:40;;;;;;;6.77;4.90;;;7.50;73.90;;;;;;5053019;28;20040;-64
2020/12/11 08:22:14;;;;;;;6.53;4.43;;;7.50;73.70;;;;;;5052847;28;20027;-64
2020/12/11 08:24:40;;;;;;;6.33;4.83;;;7.50;73.20;;;;;;5052700;28;20059;-64
2020/12/11 08:27:20;;;;;;;7.37;4.13;;;7.60;73.10;;;;;;5053180;28;20110;-64
2020/12/11 08:30:18;;;;;;;7.10;4.13;;;7.60;73.10;;;;;;5052934;28;20033;-64
2020/12/11 08:32:46;;;;;;;7.30;4.73;;;7.50;73.30;;;;;;5053039;28;20033;-64
2020/12/11 08:35:15;;;;;;;7.50;5.20;;;7.50;73.10;;;;;;5052844;28;20056;-64
2020/12/11 08:37:56;;;;;;;5.83;4.37;;;7.50;73.00;;;;;;5053062;28;20029;-64
2020/12/11 08:40:24;;;;;;;9.50;4.63;;;7.50;73.00;;;;;;5052817;28;20033;-64
2020/12/11 08:51:03;;;;;;;7.87;4.53;;;7.60;73.50;;;;;;5052739;28;20488;-64
2020/12/11 08:53:34;;;;;;;7.73;4.53;;;7.60;73.40;;;;;;5052500;28;20040;-64
2020/12/11 08:56:01;;;;;;;6.83;4.53;;;7.60;73.30;;;;;;5052634;28;20025;-69
2020/12/11 08:58:27;;;;;;;10.20;5.23;;;7.60;73.30;;;;;;5052843;28;20032;-64
2020/12/11 09:00:53;;;;;;;6.43;4.37;;;7.60;73.30;;;;;;5052928;28;20025;-64
2020/12/11 09:03:19;;;;;;;8.60;4.70;;;7.70;73.10;;;;;;5052699;28;20029;-64
2020/12/11 09:05:45;;;;;;;5.40;4.20;;;7.70;73.20;;;;;;5052762;28;20369;-64
2020/12/11 09:08:11;;;;;;;6.37;4.27;;;7.80;73.00;;;;;;5055489;28;20037;-64
2020/12/11 09:10:36;;;;;;;6.97;4.77;;;7.80;72.80;;;;;;5056300;28;20029;-64
2020/12/11 09:13:03;;;;;;;6.10;4.23;;;7.90;72.70;;;;;;5056368;28;20402;-64
2020/12/11 09:15:29;;;;;;;6.90;4.70;;;8.00;72.60;;;;;;5056278;28;20380;-64
2020/12/11 09:17:55;;;;;;;6.87;4.93;;;8.10;72.50;;;;;;5056100;28;20123;-64
2020/12/11 09:20:21;;;;;;;8.33;4.47;;;8.20;72.20;;;;;;5056239;28;20037;-64
2020/12/11 09:22:46;;;;;;;5.70;4.10;;;8.40;72.00;;;;;;5056029;28;20389;-64
2020/12/11 09:25:12;;;;;;;6.20;3.80;;;8.50;71.50;;;;;;5056026;28;20033;-64
2020/12/11 09:27:40;;;;;;;8.20;3.90;;;8.50;71.10;;;;;;5056161;28;20041;-64
2020/12/11 09:30:49;;;;;;;4.50;3.63;;;8.50;71.00;;;;;;5056195;28;20083;-64
2020/12/11 09:35:21;;;;;;;7.73;3.80;;;8.50;70.90;;;;;;5056061;28;20021;-65
2020/12/11 09:37:50;;;;;;;5.00;3.77;;;8.50;71.00;;;;;;5056175;28;20040;-64
2020/12/11 09:40:18;;;;;;;5.93;3.80;;;8.40;71.00;;;;;;5055893;28;20036;-65
2020/12/11 09:43:04;;;;;;;5.63;3.90;;;8.40;71.00;;;;;;5055770;28;20075;-64
2020/12/11 09:45:43;;;;;;;5.80;3.90;;;8.40;70.90;;;;;;5055914;28;20037;-64
2020/12/11 09:53:08;;;;;;;4.63;3.37;;;8.40;70.90;;;;;;5055605;28;20037;-64
2020/12/11 09:55:41;;;;;;;6.03;3.67;;;8.40;70.90;;;;;;5055539;28;20040;-64
2020/12/11 09:58:07;;;;;;;5.30;3.83;;;8.40;70.90;;;;;;5055680;28;20025;-64
2020/12/11 10:00:33;;;;;;;3.97;3.03;;;8.40;70.90;;;;;;5055243;28;20462;-64
2020/12/11 10:03:03;;;;;;;5.40;3.50;;;8.40;70.80;;;;;;5055716;28;20021;-64
2020/12/11 10:05:28;;;;;;;5.63;3.40;;;8.40;71.00;;;;;;5055405;28;20031;-64
2020/12/11 10:07:55;;;;;;;4.17;3.30;;;8.40;71.10;;;;;;5055187;28;20119;-64
2020/12/11 10:10:21;;;;;;;4.00;3.07;;;8.40;71.20;;;;;;5055379;28;20025;-64
2020/12/11 10:12:47;;;;;;;3.87;2.80;;;8.40;70.90;;;;;;5055385;28;20029;-64
2020/12/11 10:15:13;;;;;;;5.03;3.50;;;8.40;70.80;;;;;;5055157;28;20533;-64
2020/12/11 10:17:39;;;;;;;5.40;3.40;;;8.40;70.90;;;;;;5054617;28;20110;-64
2020/12/11 10:20:05;;;;;;;4.47;3.40;;;8.40;71.10;;;;;;5055198;28;20029;-64
2020/12/11 10:22:31;;;;;;;5.60;3.37;;;8.40;71.20;;;;;;5054945;28;20075;-64
2020/12/11 10:24:58;;;;;;;6.43;3.73;;;8.40;71.10;;;;;;5054973;28;20021;-64
2020/12/11 10:27:23;;;;;;;4.30;3.50;;;8.40;71.20;;;;;;5054975;28;20067;-64
2020/12/11 10:29:49;;;;;;;9.30;4.60;;;8.40;71.20;;;;;;5055047;28;20017;-64
2020/12/11 10:32:15;;;;;;;7.80;4.83;;;8.40;71.40;;;;;;5054963;28;20025;-64
2020/12/11 10:34:40;;;;;;;4.80;3.80;;;8.40;71.70;;;;;;5054725;28;20017;-64
2020/12/11 10:37:08;;;;;;;6.07;4.27;;;8.40;71.70;;;;;;5054751;28;20032;-64
2020/12/11 10:39:34;;;;;;;7.17;5.23;;;8.40;72.10;;;;;;5054957;28;20513;-64
2020/12/11 10:42:04;;;;;;;7.87;5.17;;;8.40;72.00;;;;;;5054666;28;20104;-64
2020/12/11 10:44:30;;;;;;;5.87;4.60;;;8.40;72.30;;;;;;5054633;28;20104;-64
2020/12/11 10:46:56;;;;;;;7.40;5.47;;;8.40;72.40;;;;;;5054539;28;20031;-64
2020/12/11 10:49:22;;;;;;;6.23;4.37;;;8.40;72.60;;;;;;5054471;28;20442;-64
2020/12/11 10:51:49;;;;;;;10.77;4.80;;;8.40;72.60;;;;;;5054429;28;20025;-65
2020/12/11 10:54:17;;;;;;;6.07;4.67;;;8.30;72.50;;;;;;5054157;28;20108;-65
2020/12/11 10:56:46;;;;;;;6.23;4.07;;;8.40;72.50;;;;;;5054368;28;20519;-65
2020/12/11 10:59:15;;;;;;;5.80;4.33;;;8.40;72.50;;;;;;5054208;28;20086;-65
2020/12/11 11:01:41;;;;;;;7.70;3.90;;;8.40;73.00;;;;;;5054390;28;20031;-65
2020/12/11 11:04:08;;;;;;;4.90;3.73;;;8.40;73.10;;;;;;5054329;28;20025;-65
2020/12/11 11:06:40;;;;;;;6.43;3.97;;;8.40;73.00;;;;;;5054008;28;20385;-65
2020/12/11 11:27:57;;;;;;;7.13;4.67;;;8.50;72.80;;;;;;5051667;28;20067;-65
2020/12/11 11:30:25;;;;;;;4.73;3.37;;;8.40;73.00;;;;;;5051808;28;20037;-65
2020/12/11 11:32:51;;;;;;;4.67;3.67;;;8.50;73.10;;;;;;5053765;28;20032;-65
2020/12/11 11:35:17;;;;;;;5.60;4.10;;;8.50;73.40;;;;;;5053606;28;20028;-65
2020/12/11 11:37:44;;;;;;;6.03;3.83;;;8.50;73.40;;;;;;5053603;28;20025;-66
2020/12/11 11:40:10;;;;;;;6.00;4.00;;;8.50;73.50;;;;;;5053594;28;20020;-65
2020/12/11 11:42:35;;;;;;;5.83;4.60;;;8.50;73.50;;;;;;5053623;28;20398;-65
2020/12/11 11:45:03;;;;;;;5.70;4.37;;;8.50;73.50;;;;;;5053599;28;20418;-65
2020/12/11 11:47:30;;;;;;;5.00;3.83;;;8.50;73.60;;;;;;5053431;28;20032;-65
2020/12/11 11:55:11;;;;;;;13.93;8.63;;;8.60;74.10;;;;;;5053417;28;20039;-63
2020/12/11 11:57:38;;;;;;;16.30;8.77;;;8.60;74.30;;;;;;5053444;28;20055;-63
2020/12/11 12:00:09;;;;;;;13.40;8.60;;;8.60;74.30;;;;;;5053396;28;20460;-64
2020/12/11 12:02:35;;;;;;;13.93;8.70;;;8.60;74.40;;;;;;5053248;28;20036;-65
2020/12/11 12:05:02;;;;;;;14.03;7.73;;;8.60;74.60;;;;;;5053086;28;20025;-64
2020/12/11 12:07:29;;;;;;;12.03;7.47;;;8.60;75.40;;;;;;5053441;28;20131;-65
2020/12/11 12:09:55;;;;;;;13.63;7.43;;;8.60;75.40;;;;;;5051270;28;20529;-67
2020/12/11 12:12:21;;;;;;;9.47;7.37;;;8.60;75.60;;;;;;5050321;28;20017;-66
2020/12/11 12:14:48;;;;;;;8.70;6.30;;;8.60;76.20;;;;;;5050228;28;20108;-65
2020/12/11 12:17:16;;;;;;;12.87;5.83;;;8.60;76.00;;;;;;5051179;28;20048;-65
2020/12/11 12:19:45;;;;;;;9.57;5.87;;;8.60;75.80;;;;;;5050130;28;20444;-66
2020/12/11 12:29:52;;;;;;;10.83;5.50;;;8.60;76.30;;;;;;5052878;28;20036;-63
2020/12/11 12:32:20;;;;;;;6.90;4.90;;;8.60;76.10;;;;;;5052849;28;20391;-64
2020/12/11 12:42:36;;;;;;;7.30;4.77;;;8.60;76.40;;;;;;5055868;28;20086;-65
2020/12/11 12:45:03;;;;;;;6.80;4.63;;;8.50;76.30;;;;;;5056868;28;20033;-64
2020/12/11 12:47:29;;;;;;;6.20;4.30;;;8.60;76.20;;;;;;5056606;28;20528;-65
2020/12/11 12:49:55;;;;;;;7.77;3.90;;;8.60;76.30;;;;;;5056739;28;20040;-65
2020/12/11 12:52:20;;;;;;;9.20;4.37;;;8.60;76.00;;;;;;5056718;28;20108;-64
2020/12/11 12:54:46;;;;;;;7.43;4.57;;;8.70;75.90;;;;;;5055982;28;20021;-64
2020/12/11 12:57:36;;;;;;;6.33;4.17;;;8.70;76.00;;;;;;5056671;28;20075;-64
2020/12/11 13:00:20;;;;;;;11.30;4.70;;;8.70;76.20;;;;;;5056545;28;20040;-64
2020/12/11 13:05:17;;;;;;;6.37;4.43;;;8.70;76.20;;;;;;5056370;28;20036;-66
2020/12/11 13:07:43;;;;;;;7.10;3.90;;;8.70;76.20;;;;;;5056129;28;20385;-66
2020/12/11 13:10:09;;;;;;;7.83;3.87;;;8.70;76.20;;;;;;5056255;28;20032;-66
2020/12/11 13:12:34;;;;;;;4.53;3.70;;;8.70;76.30;;;;;;5056419;28;20028;-67
2020/12/11 13:15:00;;;;;;;6.03;4.17;;;8.70;76.20;;;;;;5056229;28;20040;-67
2020/12/11 13:17:26;;;;;;;12.83;4.10;;;8.70;76.20;;;;;;5055842;28;20025;-67
2020/12/11 13:19:53;;;;;;;5.60;3.80;;;8.60;76.20;;;;;;5055869;28;20496;-65
2020/12/11 13:22:39;;;;;;;7.97;4.97;;;8.60;76.30;;;;;;5056163;28;20484;-65
2020/12/11 13:27:46;;;;;;;6.50;4.30;;;8.60;76.20;;;;;;5055818;28;20120;-65
2020/12/11 13:30:12;;;;;;;8.27;5.20;;;8.60;76.10;;;;;;5055442;28;20131;-64
2020/12/11 13:32:39;;;;;;;6.70;5.27;;;8.60;76.10;;;;;;5055612;28;20031;-65
2020/12/11 13:35:05;;;;;;;7.57;4.73;;;8.60;76.00;;;;;;5055659;28;20036;-66
2020/12/11 13:37:31;;;;;;;10.53;4.67;;;8.70;76.00;;;;;;5055328;28;20544;-65
2020/12/11 13:39:58;;;;;;;7.23;4.83;;;8.70;75.80;;;;;;5043231;28;20029;-66
2020/12/11 13:42:24;;;;;;;7.23;5.00;;;8.70;75.90;;;;;;5041414;28;20025;-68
2020/12/11 13:44:50;;;;;;;7.93;5.37;;;8.70;75.90;;;;;;5041249;28;20550;-66
2020/12/11 13:47:16;;;;;;;8.77;5.43;;;8.80;75.80;;;;;;5043154;28;20052;-66
2020/12/11 13:49:42;;;;;;;6.23;3.90;;;8.80;75.60;;;;;;5044018;28;20082;-66
2020/12/11 13:52:07;;;;;;;5.40;3.87;;;8.80;75.60;;;;;;5044418;28;20382;-66
2020/12/11 13:54:33;;;;;;;5.57;3.93;;;8.80;74.30;;;;;;5047976;28;20025;-67
2020/12/11 13:56:58;;;;;;;6.50;4.20;;;8.80;74.20;;;;;;5053741;28;20024;-66
2020/12/11 13:59:24;;;;;;;6.87;4.93;;;8.80;74.40;;;;;;5055160;28;20103;-67
2020/12/11 14:01:50;;;;;;;6.90;4.90;;;8.70;74.50;;;;;;5055503;28;20404;-67